sensor_id;sensor_type;location;lat;lon;timestamp;P1;durP1;ratioP1;P2;durP2;ratioP2
60312;SDS011;46158;52.850;6.970;2023-09-30T00:01:17;11.95;;;3.05;;
60312;SDS011;46158;52.850;6.970;2023-09-30T00:03:44;10.02;;;3.08;;
60312;SDS011;46158;52.850;6.970;2023-09-30T00:06:10;12.40;;;3.00;;
60312;SDS011;46158;52.850;6.970;2023-09-30T00:08:35;12.02;;;3.17;;
60312;SDS011;46158;52.850;6.970;2023-09-30T00:11:04;10.45;;;3.13;;
60312;SDS011;46158;52.850;6.970;2023-09-30T00:13:31;12.00;;;3.13;;
60312;SDS011;46158;52.850;6.970;2023-09-30T00:15:57;11.88;;;3.25;;
60312;SDS011;46158;52.850;6.970;2023-09-30T00:18:23;10.38;;;3.05;;
60312;SDS011;46158;52.850;6.970;2023-09-30T00:20:48;11.80;;;3.10;;
60312;SDS011;46158;52.850;6.970;2023-09-30T00:23:14;10.30;;;2.80;;
60312;SDS011;46158;52.850;6.970;2023-09-30T00:25:40;12.63;;;3.05;;
60312;SDS011;46158;52.850;6.970;2023-09-30T00:28:07;10.57;;;3.15;;
60312;SDS011;46158;52.850;6.970;2023-09-30T00:30:32;10.35;;;3.10;;
60312;SDS011;46158;52.850;6.970;2023-09-30T00:32:58;11.65;;;3.00;;
60312;SDS011;46158;52.850;6.970;2023-09-30T00:35:25;10.93;;;2.90;;
60312;SDS011;46158;52.850;6.970;2023-09-30T00:37:50;11.43;;;2.92;;
60312;SDS011;46158;52.850;6.970;2023-09-30T00:40:16;12.05;;;3.00;;
60312;SDS011;46158;52.850;6.970;2023-09-30T00:42:42;10.93;;;2.95;;
60312;SDS011;46158;52.850;6.970;2023-09-30T00:45:08;12.30;;;3.08;;
60312;SDS011;46158;52.850;6.970;2023-09-30T00:47:35;12.65;;;3.15;;
60312;SDS011;46158;52.850;6.970;2023-09-30T00:50:02;11.63;;;3.25;;
60312;SDS011;46158;52.850;6.970;2023-09-30T00:52:29;11.02;;;2.72;;
60312;SDS011;46158;52.850;6.970;2023-09-30T00:54:57;9.48;;;2.65;;
60312;SDS011;46158;52.850;6.970;2023-09-30T00:57:22;10.07;;;2.85;;
60312;SDS011;46158;52.850;6.970;2023-09-30T00:59:50;10.88;;;2.63;;
60312;SDS011;46158;52.850;6.970;2023-09-30T01:02:19;10.52;;;2.80;;
60312;SDS011;46158;52.850;6.970;2023-09-30T01:04:47;10.27;;;2.95;;
60312;SDS011;46158;52.850;6.970;2023-09-30T01:07:14;10.75;;;3.00;;
60312;SDS011;46158;52.850;6.970;2023-09-30T01:09:39;8.95;;;2.50;;
60312;SDS011;46158;52.850;6.970;2023-09-30T01:12:05;9.88;;;2.70;;
60312;SDS011;46158;52.850;6.970;2023-09-30T01:14:33;8.98;;;2.72;;
60312;SDS011;46158;52.850;6.970;2023-09-30T01:16:59;11.52;;;3.00;;
60312;SDS011;46158;52.850;6.970;2023-09-30T01:19:26;11.27;;;2.95;;
60312;SDS011;46158;52.850;6.970;2023-09-30T01:21:53;9.90;;;2.85;;
60312;SDS011;46158;52.850;6.970;2023-09-30T01:24:25;12.23;;;3.00;;
60312;SDS011;46158;52.850;6.970;2023-09-30T01:26:51;9.77;;;2.80;;
60312;SDS011;46158;52.850;6.970;2023-09-30T01:29:17;9.60;;;2.70;;
60312;SDS011;46158;52.850;6.970;2023-09-30T01:31:43;12.77;;;3.00;;
60312;SDS011;46158;52.850;6.970;2023-09-30T01:34:12;10.30;;;2.60;;
60312;SDS011;46158;52.850;6.970;2023-09-30T01:36:39;10.40;;;2.80;;
60312;SDS011;46158;52.850;6.970;2023-09-30T01:39:05;10.15;;;3.00;;
60312;SDS011;46158;52.850;6.970;2023-09-30T01:44:01;8.35;;;2.70;;
60312;SDS011;46158;52.850;6.970;2023-09-30T01:46:27;10.48;;;2.97;;
60312;SDS011;46158;52.850;6.970;2023-09-30T01:48:53;10.70;;;2.95;;
60312;SDS011;46158;52.850;6.970;2023-09-30T01:51:18;8.70;;;2.80;;
60312;SDS011;46158;52.850;6.970;2023-09-30T01:53:44;10.73;;;2.72;;
60312;SDS011;46158;52.850;6.970;2023-09-30T01:56:10;11.00;;;3.05;;
60312;SDS011;46158;52.850;6.970;2023-09-30T01:58:35;10.93;;;2.60;;
60312;SDS011;46158;52.850;6.970;2023-09-30T02:01:02;10.48;;;2.83;;
60312;SDS011;46158;52.850;6.970;2023-09-30T02:03:28;10.52;;;2.90;;
60312;SDS011;46158;52.850;6.970;2023-09-30T02:05:54;10.95;;;2.90;;
60312;SDS011;46158;52.850;6.970;2023-09-30T02:08:21;8.18;;;2.70;;
60312;SDS011;46158;52.850;6.970;2023-09-30T02:10:47;8.75;;;2.78;;
60312;SDS011;46158;52.850;6.970;2023-09-30T02:13:13;10.05;;;2.80;;
60312;SDS011;46158;52.850;6.970;2023-09-30T02:15:42;9.45;;;3.05;;
60312;SDS011;46158;52.850;6.970;2023-09-30T02:18:08;11.93;;;2.97;;
60312;SDS011;46158;52.850;6.970;2023-09-30T02:20:34;7.15;;;2.70;;
60312;SDS011;46158;52.850;6.970;2023-09-30T02:23:04;10.43;;;2.80;;
60312;SDS011;46158;52.850;6.970;2023-09-30T02:25:36;9.45;;;2.70;;
60312;SDS011;46158;52.850;6.970;2023-09-30T02:28:02;10.05;;;2.83;;
60312;SDS011;46158;52.850;6.970;2023-09-30T02:30:28;10.25;;;2.80;;
60312;SDS011;46158;52.850;6.970;2023-09-30T02:32:53;12.48;;;2.88;;
60312;SDS011;46158;52.850;6.970;2023-09-30T02:35:21;11.32;;;2.80;;
60312;SDS011;46158;52.850;6.970;2023-09-30T02:37:47;9.65;;;2.83;;
60312;SDS011;46158;52.850;6.970;2023-09-30T02:40:12;9.40;;;2.72;;
60312;SDS011;46158;52.850;6.970;2023-09-30T02:42:40;10.60;;;3.03;;
60312;SDS011;46158;52.850;6.970;2023-09-30T02:45:06;9.30;;;2.63;;
60312;SDS011;46158;52.850;6.970;2023-09-30T02:47:35;10.27;;;2.73;;
60312;SDS011;46158;52.850;6.970;2023-09-30T02:50:02;11.27;;;2.80;;
60312;SDS011;46158;52.850;6.970;2023-09-30T02:52:29;7.50;;;2.72;;
60312;SDS011;46158;52.850;6.970;2023-09-30T02:54:55;9.98;;;2.80;;
60312;SDS011;46158;52.850;6.970;2023-09-30T02:57:22;10.68;;;2.75;;
60312;SDS011;46158;52.850;6.970;2023-09-30T02:59:48;9.63;;;2.92;;
60312;SDS011;46158;52.850;6.970;2023-09-30T03:02:14;9.98;;;2.70;;
60312;SDS011;46158;52.850;6.970;2023-09-30T03:04:41;9.05;;;2.80;;
60312;SDS011;46158;52.850;6.970;2023-09-30T03:07:07;10.68;;;2.90;;
60312;SDS011;46158;52.850;6.970;2023-09-30T03:09:34;10.55;;;2.90;;
60312;SDS011;46158;52.850;6.970;2023-09-30T03:12:01;8.65;;;2.80;;
60312;SDS011;46158;52.850;6.970;2023-09-30T03:14:27;9.82;;;2.70;;
60312;SDS011;46158;52.850;6.970;2023-09-30T03:16:56;8.95;;;2.70;;
60312;SDS011;46158;52.850;6.970;2023-09-30T03:19:22;9.80;;;2.90;;
60312;SDS011;46158;52.850;6.970;2023-09-30T03:21:48;10.13;;;2.72;;
60312;SDS011;46158;52.850;6.970;2023-09-30T03:24:13;11.65;;;2.95;;
60312;SDS011;46158;52.850;6.970;2023-09-30T03:26:39;10.50;;;2.70;;
60312;SDS011;46158;52.850;6.970;2023-09-30T03:29:06;9.38;;;2.42;;
60312;SDS011;46158;52.850;6.970;2023-09-30T03:31:34;10.23;;;2.90;;
60312;SDS011;46158;52.850;6.970;2023-09-30T03:34:00;8.48;;;2.67;;
60312;SDS011;46158;52.850;6.970;2023-09-30T03:36:27;7.35;;;2.60;;
60312;SDS011;46158;52.850;6.970;2023-09-30T03:38:53;8.20;;;2.60;;
60312;SDS011;46158;52.850;6.970;2023-09-30T03:41:25;7.95;;;2.63;;
60312;SDS011;46158;52.850;6.970;2023-09-30T03:43:51;9.27;;;2.50;;
60312;SDS011;46158;52.850;6.970;2023-09-30T03:46:17;8.98;;;2.60;;
60312;SDS011;46158;52.850;6.970;2023-09-30T03:48:43;8.50;;;2.55;;
60312;SDS011;46158;52.850;6.970;2023-09-30T03:51:10;11.45;;;2.70;;
60312;SDS011;46158;52.850;6.970;2023-09-30T03:53:42;7.25;;;2.60;;
60312;SDS011;46158;52.850;6.970;2023-09-30T03:58:39;7.53;;;2.70;;
60312;SDS011;46158;52.850;6.970;2023-09-30T04:01:11;9.47;;;2.63;;
60312;SDS011;46158;52.850;6.970;2023-09-30T04:03:39;9.18;;;2.42;;
60312;SDS011;46158;52.850;6.970;2023-09-30T04:06:05;10.52;;;2.95;;
60312;SDS011;46158;52.850;6.970;2023-09-30T04:08:32;8.75;;;2.40;;
60312;SDS011;46158;52.850;6.970;2023-09-30T04:11:01;5.78;;;2.50;;
60312;SDS011;46158;52.850;6.970;2023-09-30T04:13:28;9.82;;;2.70;;
60312;SDS011;46158;52.850;6.970;2023-09-30T04:15:54;8.70;;;2.50;;
60312;SDS011;46158;52.850;6.970;2023-09-30T04:18:23;9.98;;;2.85;;
60312;SDS011;46158;52.850;6.970;2023-09-30T04:20:51;10.20;;;2.83;;
60312;SDS011;46158;52.850;6.970;2023-09-30T04:23:17;11.05;;;2.88;;
60312;SDS011;46158;52.850;6.970;2023-09-30T04:25:45;8.70;;;2.80;;
60312;SDS011;46158;52.850;6.970;2023-09-30T04:28:11;9.30;;;2.85;;
60312;SDS011;46158;52.850;6.970;2023-09-30T04:30:38;9.30;;;3.03;;
60312;SDS011;46158;52.850;6.970;2023-09-30T04:33:04;10.65;;;2.75;;
60312;SDS011;46158;52.850;6.970;2023-09-30T04:35:32;8.38;;;2.67;;
60312;SDS011;46158;52.850;6.970;2023-09-30T04:38:00;7.53;;;2.63;;
60312;SDS011;46158;52.850;6.970;2023-09-30T04:40:26;10.77;;;2.80;;
60312;SDS011;46158;52.850;6.970;2023-09-30T04:42:52;8.38;;;2.60;;
60312;SDS011;46158;52.850;6.970;2023-09-30T04:45:24;8.70;;;2.60;;
60312;SDS011;46158;52.850;6.970;2023-09-30T04:47:51;9.48;;;2.83;;
60312;SDS011;46158;52.850;6.970;2023-09-30T04:50:23;9.70;;;2.70;;
60312;SDS011;46158;52.850;6.970;2023-09-30T04:52:49;8.55;;;2.45;;
60312;SDS011;46158;52.850;6.970;2023-09-30T04:55:18;9.00;;;2.88;;
60312;SDS011;46158;52.850;6.970;2023-09-30T04:57:45;7.95;;;2.60;;
60312;SDS011;46158;52.850;6.970;2023-09-30T05:00:13;9.25;;;3.10;;
60312;SDS011;46158;52.850;6.970;2023-09-30T05:02:40;9.68;;;2.70;;
60312;SDS011;46158;52.850;6.970;2023-09-30T05:05:05;8.82;;;2.60;;
60312;SDS011;46158;52.850;6.970;2023-09-30T05:07:32;11.75;;;2.92;;
60312;SDS011;46158;52.850;6.970;2023-09-30T05:09:58;5.90;;;2.40;;
60312;SDS011;46158;52.850;6.970;2023-09-30T05:12:24;8.88;;;2.70;;
60312;SDS011;46158;52.850;6.970;2023-09-30T05:14:51;8.68;;;2.70;;
60312;SDS011;46158;52.850;6.970;2023-09-30T05:17:17;8.70;;;2.55;;
60312;SDS011;46158;52.850;6.970;2023-09-30T05:19:43;7.65;;;2.78;;
60312;SDS011;46158;52.850;6.970;2023-09-30T05:22:09;10.80;;;2.60;;
60312;SDS011;46158;52.850;6.970;2023-09-30T05:24:35;8.00;;;2.60;;
60312;SDS011;46158;52.850;6.970;2023-09-30T05:27:01;10.27;;;2.95;;
60312;SDS011;46158;52.850;6.970;2023-09-30T05:29:27;8.38;;;2.40;;
60312;SDS011;46158;52.850;6.970;2023-09-30T05:31:53;9.02;;;2.60;;
60312;SDS011;46158;52.850;6.970;2023-09-30T05:34:19;10.10;;;2.72;;
60312;SDS011;46158;52.850;6.970;2023-09-30T05:36:45;7.25;;;2.60;;
60312;SDS011;46158;52.850;6.970;2023-09-30T05:39:10;9.00;;;2.70;;
60312;SDS011;46158;52.850;6.970;2023-09-30T05:41:37;8.38;;;2.90;;
60312;SDS011;46158;52.850;6.970;2023-09-30T05:44:03;7.97;;;2.78;;
60312;SDS011;46158;52.850;6.970;2023-09-30T05:46:32;8.13;;;2.58;;
60312;SDS011;46158;52.850;6.970;2023-09-30T05:48:58;7.28;;;2.63;;
60312;SDS011;46158;52.850;6.970;2023-09-30T05:51:24;7.05;;;2.47;;
60312;SDS011;46158;52.850;6.970;2023-09-30T05:53:49;8.90;;;2.78;;
60312;SDS011;46158;52.850;6.970;2023-09-30T05:56:15;10.80;;;2.80;;
60312;SDS011;46158;52.850;6.970;2023-09-30T05:58:41;10.55;;;2.70;;
60312;SDS011;46158;52.850;6.970;2023-09-30T06:01:08;9.48;;;2.58;;
60312;SDS011;46158;52.850;6.970;2023-09-30T06:03:36;9.02;;;2.63;;
60312;SDS011;46158;52.850;6.970;2023-09-30T06:06:10;11.07;;;3.00;;
60312;SDS011;46158;52.850;6.970;2023-09-30T06:08:37;10.48;;;3.20;;
60312;SDS011;46158;52.850;6.970;2023-09-30T06:11:03;9.23;;;2.63;;
60312;SDS011;46158;52.850;6.970;2023-09-30T06:13:29;12.18;;;3.20;;
60312;SDS011;46158;52.850;6.970;2023-09-30T06:15:56;9.13;;;2.75;;
60312;SDS011;46158;52.850;6.970;2023-09-30T06:18:23;11.38;;;3.35;;
60312;SDS011;46158;52.850;6.970;2023-09-30T06:20:49;12.02;;;3.08;;
60312;SDS011;46158;52.850;6.970;2023-09-30T06:23:16;7.78;;;2.80;;
60312;SDS011;46158;52.850;6.970;2023-09-30T06:25:42;11.48;;;3.42;;
60312;SDS011;46158;52.850;6.970;2023-09-30T06:28:07;9.63;;;2.88;;
60312;SDS011;46158;52.850;6.970;2023-09-30T06:30:34;11.73;;;2.90;;
60312;SDS011;46158;52.850;6.970;2023-09-30T06:33:00;9.40;;;2.80;;
60312;SDS011;46158;52.850;6.970;2023-09-30T06:35:27;8.25;;;2.85;;
60312;SDS011;46158;52.850;6.970;2023-09-30T06:37:55;9.93;;;2.83;;
60312;SDS011;46158;52.850;6.970;2023-09-30T06:40:20;8.40;;;2.83;;
60312;SDS011;46158;52.850;6.970;2023-09-30T06:42:47;7.15;;;2.50;;
60312;SDS011;46158;52.850;6.970;2023-09-30T06:45:12;10.35;;;3.13;;
60312;SDS011;46158;52.850;6.970;2023-09-30T06:47:39;10.32;;;2.78;;
60312;SDS011;46158;52.850;6.970;2023-09-30T06:50:10;9.88;;;2.97;;
60312;SDS011;46158;52.850;6.970;2023-09-30T06:52:41;5.70;;;2.53;;
60312;SDS011;46158;52.850;6.970;2023-09-30T06:55:07;11.15;;;3.00;;
60312;SDS011;46158;52.850;6.970;2023-09-30T06:57:35;9.77;;;2.90;;
60312;SDS011;46158;52.850;6.970;2023-09-30T07:00:11;9.40;;;3.00;;
60312;SDS011;46158;52.850;6.970;2023-09-30T07:02:38;8.38;;;2.70;;
60312;SDS011;46158;52.850;6.970;2023-09-30T07:05:12;9.77;;;2.80;;
60312;SDS011;46158;52.850;6.970;2023-09-30T07:07:39;8.98;;;2.97;;
60312;SDS011;46158;52.850;6.970;2023-09-30T07:10:08;11.45;;;3.10;;
60312;SDS011;46158;52.850;6.970;2023-09-30T07:12:34;10.68;;;3.38;;
60312;SDS011;46158;52.850;6.970;2023-09-30T07:15:04;11.20;;;3.00;;
60312;SDS011;46158;52.850;6.970;2023-09-30T07:17:30;8.45;;;2.75;;
60312;SDS011;46158;52.850;6.970;2023-09-30T07:19:57;11.85;;;3.00;;
60312;SDS011;46158;52.850;6.970;2023-09-30T07:22:22;10.82;;;3.08;;
60312;SDS011;46158;52.850;6.970;2023-09-30T07:24:48;8.90;;;2.97;;
60312;SDS011;46158;52.850;6.970;2023-09-30T07:27:14;9.70;;;2.90;;
60312;SDS011;46158;52.850;6.970;2023-09-30T07:29:39;11.70;;;3.25;;
60312;SDS011;46158;52.850;6.970;2023-09-30T07:32:06;11.27;;;3.00;;
60312;SDS011;46158;52.850;6.970;2023-09-30T07:34:32;9.23;;;2.90;;
60312;SDS011;46158;52.850;6.970;2023-09-30T07:36:58;10.50;;;3.15;;
60312;SDS011;46158;52.850;6.970;2023-09-30T07:39:24;12.73;;;3.30;;
60312;SDS011;46158;52.850;6.970;2023-09-30T07:41:49;9.95;;;3.08;;
60312;SDS011;46158;52.850;6.970;2023-09-30T07:44:15;8.80;;;3.10;;
60312;SDS011;46158;52.850;6.970;2023-09-30T07:46:41;9.07;;;3.13;;
60312;SDS011;46158;52.850;6.970;2023-09-30T07:49:10;8.35;;;2.92;;
60312;SDS011;46158;52.850;6.970;2023-09-30T07:51:36;10.38;;;3.20;;
60312;SDS011;46158;52.850;6.970;2023-09-30T07:54:04;9.38;;;2.85;;
60312;SDS011;46158;52.850;6.970;2023-09-30T07:56:30;12.50;;;3.03;;
60312;SDS011;46158;52.850;6.970;2023-09-30T07:58:56;8.00;;;2.83;;
60312;SDS011;46158;52.850;6.970;2023-09-30T08:01:22;10.32;;;3.00;;
60312;SDS011;46158;52.850;6.970;2023-09-30T08:03:47;9.80;;;2.90;;
60312;SDS011;46158;52.850;6.970;2023-09-30T08:06:13;10.65;;;2.90;;
60312;SDS011;46158;52.850;6.970;2023-09-30T08:08:39;8.98;;;2.83;;
60312;SDS011;46158;52.850;6.970;2023-09-30T08:11:05;8.75;;;2.70;;
60312;SDS011;46158;52.850;6.970;2023-09-30T08:13:31;11.00;;;3.15;;
60312;SDS011;46158;52.850;6.970;2023-09-30T08:15:57;9.93;;;3.03;;
60312;SDS011;46158;52.850;6.970;2023-09-30T08:18:24;10.88;;;3.08;;
60312;SDS011;46158;52.850;6.970;2023-09-30T08:20:50;9.80;;;2.80;;
60312;SDS011;46158;52.850;6.970;2023-09-30T08:23:15;10.07;;;3.15;;
60312;SDS011;46158;52.850;6.970;2023-09-30T08:25:41;8.23;;;2.83;;
60312;SDS011;46158;52.850;6.970;2023-09-30T08:28:07;9.57;;;3.00;;
60312;SDS011;46158;52.850;6.970;2023-09-30T08:30:34;9.25;;;2.95;;
60312;SDS011;46158;52.850;6.970;2023-09-30T08:33:03;6.90;;;2.70;;
60312;SDS011;46158;52.850;6.970;2023-09-30T08:35:29;9.90;;;2.80;;
60312;SDS011;46158;52.850;6.970;2023-09-30T08:37:56;10.75;;;2.90;;
60312;SDS011;46158;52.850;6.970;2023-09-30T08:40:23;10.13;;;3.03;;
60312;SDS011;46158;52.850;6.970;2023-09-30T08:42:51;9.27;;;3.00;;
60312;SDS011;46158;52.850;6.970;2023-09-30T08:45:18;12.10;;;3.35;;
60312;SDS011;46158;52.850;6.970;2023-09-30T08:47:46;11.20;;;3.10;;
60312;SDS011;46158;52.850;6.970;2023-09-30T08:50:12;9.15;;;2.88;;
60312;SDS011;46158;52.850;6.970;2023-09-30T08:52:41;10.27;;;3.00;;
60312;SDS011;46158;52.850;6.970;2023-09-30T08:55:09;9.07;;;2.80;;
60312;SDS011;46158;52.850;6.970;2023-09-30T08:57:42;10.52;;;3.05;;
60312;SDS011;46158;52.850;6.970;2023-09-30T09:00:09;14.93;;;3.80;;
60312;SDS011;46158;52.850;6.970;2023-09-30T09:02:39;14.30;;;3.80;;
60312;SDS011;46158;52.850;6.970;2023-09-30T09:05:05;14.93;;;3.80;;
60312;SDS011;46158;52.850;6.970;2023-09-30T09:07:32;11.43;;;3.38;;
60312;SDS011;46158;52.850;6.970;2023-09-30T09:10:06;14.95;;;3.58;;
60312;SDS011;46158;52.850;6.970;2023-09-30T09:12:34;15.63;;;3.50;;
60312;SDS011;46158;52.850;6.970;2023-09-30T09:15:02;14.05;;;3.55;;
60312;SDS011;46158;52.850;6.970;2023-09-30T09:17:41;13.10;;;3.47;;
60312;SDS011;46158;52.850;6.970;2023-09-30T09:20:09;11.18;;;3.50;;
60312;SDS011;46158;52.850;6.970;2023-09-30T09:22:42;14.82;;;3.65;;
60312;SDS011;46158;52.850;6.970;2023-09-30T09:25:09;14.77;;;3.40;;
60312;SDS011;46158;52.850;6.970;2023-09-30T09:27:36;15.60;;;3.65;;
60312;SDS011;46158;52.850;6.970;2023-09-30T09:30:18;14.43;;;3.70;;
60312;SDS011;46158;52.850;6.970;2023-09-30T09:35:33;15.77;;;4.15;;
60312;SDS011;46158;52.850;6.970;2023-09-30T09:38:01;15.27;;;3.70;;
60312;SDS011;46158;52.850;6.970;2023-09-30T09:40:34;13.73;;;3.50;;
60312;SDS011;46158;52.850;6.970;2023-09-30T09:43:01;15.90;;;3.83;;
60312;SDS011;46158;52.850;6.970;2023-09-30T09:45:34;16.70;;;4.07;;
60312;SDS011;46158;52.850;6.970;2023-09-30T09:48:01;15.85;;;3.90;;
60312;SDS011;46158;52.850;6.970;2023-09-30T09:50:29;17.90;;;4.10;;
60312;SDS011;46158;52.850;6.970;2023-09-30T09:52:57;14.48;;;3.78;;
60312;SDS011;46158;52.850;6.970;2023-09-30T09:55:25;18.42;;;4.15;;
60312;SDS011;46158;52.850;6.970;2023-09-30T09:57:52;14.13;;;3.90;;
60312;SDS011;46158;52.850;6.970;2023-09-30T10:00:20;16.75;;;3.75;;
60312;SDS011;46158;52.850;6.970;2023-09-30T10:02:49;16.83;;;3.75;;
60312;SDS011;46158;52.850;6.970;2023-09-30T10:05:16;16.33;;;4.22;;
60312;SDS011;46158;52.850;6.970;2023-09-30T10:10:26;15.43;;;3.63;;
60312;SDS011;46158;52.850;6.970;2023-09-30T10:12:53;16.55;;;4.03;;
60312;SDS011;46158;52.850;6.970;2023-09-30T10:17:57;16.40;;;3.63;;
60312;SDS011;46158;52.850;6.970;2023-09-30T10:20:31;15.48;;;4.55;;
60312;SDS011;46158;52.850;6.970;2023-09-30T10:23:42;17.08;;;4.70;;
60312;SDS011;46158;52.850;6.970;2023-09-30T10:25:50;16.23;;;4.90;;
60312;SDS011;46158;52.850;6.970;2023-09-30T10:36:31;18.13;;;5.72;;
60312;SDS011;46158;52.850;6.970;2023-09-30T10:39:03;18.50;;;5.72;;
60312;SDS011;46158;52.850;6.970;2023-09-30T10:46:54;18.45;;;5.70;;
60312;SDS011;46158;52.850;6.970;2023-09-30T10:51:53;16.70;;;5.63;;
60312;SDS011;46158;52.850;6.970;2023-09-30T10:56:50;18.08;;;5.78;;
60312;SDS011;46158;52.850;6.970;2023-09-30T10:59:23;19.25;;;5.90;;
60312;SDS011;46158;52.850;6.970;2023-09-30T11:02:00;16.20;;;5.40;;
60312;SDS011;46158;52.850;6.970;2023-09-30T11:04:25;19.52;;;5.65;;
60312;SDS011;46158;52.850;6.970;2023-09-30T11:06:53;18.27;;;5.13;;
60312;SDS011;46158;52.850;6.970;2023-09-30T11:09:20;16.20;;;4.50;;
60312;SDS011;46158;52.850;6.970;2023-09-30T11:11:48;25.40;;;5.20;;
60312;SDS011;46158;52.850;6.970;2023-09-30T11:14:22;19.02;;;5.15;;
60312;SDS011;46158;52.850;6.970;2023-09-30T11:16:56;16.98;;;4.60;;
60312;SDS011;46158;52.850;6.970;2023-09-30T11:19:35;17.80;;;4.88;;
60312;SDS011;46158;52.850;6.970;2023-09-30T11:22:10;14.75;;;4.38;;
60312;SDS011;46158;52.850;6.970;2023-09-30T11:24:37;14.02;;;4.30;;
60312;SDS011;46158;52.850;6.970;2023-09-30T11:27:03;16.50;;;4.28;;
60312;SDS011;46158;52.850;6.970;2023-09-30T11:29:29;15.30;;;4.72;;
60312;SDS011;46158;52.850;6.970;2023-09-30T11:31:55;15.27;;;4.47;;
60312;SDS011;46158;52.850;6.970;2023-09-30T11:34:30;16.25;;;4.30;;
60312;SDS011;46158;52.850;6.970;2023-09-30T11:37:00;15.15;;;4.10;;
60312;SDS011;46158;52.850;6.970;2023-09-30T11:39:27;14.32;;;4.43;;
60312;SDS011;46158;52.850;6.970;2023-09-30T11:41:54;17.00;;;4.10;;
60312;SDS011;46158;52.850;6.970;2023-09-30T11:44:22;15.98;;;4.28;;
60312;SDS011;46158;52.850;6.970;2023-09-30T11:46:58;16.23;;;4.28;;
60312;SDS011;46158;52.850;6.970;2023-09-30T11:51:59;14.48;;;4.30;;
60312;SDS011;46158;52.850;6.970;2023-09-30T11:54:44;14.07;;;4.40;;
60312;SDS011;46158;52.850;6.970;2023-09-30T11:57:11;17.17;;;4.35;;
60312;SDS011;46158;52.850;6.970;2023-09-30T11:59:40;14.02;;;3.80;;
60312;SDS011;46158;52.850;6.970;2023-09-30T12:02:06;14.13;;;4.20;;
60312;SDS011;46158;52.850;6.970;2023-09-30T12:04:36;17.00;;;4.30;;
60312;SDS011;46158;52.850;6.970;2023-09-30T12:07:03;17.27;;;4.40;;
60312;SDS011;46158;52.850;6.970;2023-09-30T12:09:29;14.30;;;4.28;;
60312;SDS011;46158;52.850;6.970;2023-09-30T12:11:56;16.63;;;4.25;;
60312;SDS011;46158;52.850;6.970;2023-09-30T12:14:23;16.35;;;4.25;;
60312;SDS011;46158;52.850;6.970;2023-09-30T12:16:49;14.98;;;4.00;;
60312;SDS011;46158;52.850;6.970;2023-09-30T12:19:18;12.85;;;3.80;;
60312;SDS011;46158;52.850;6.970;2023-09-30T12:21:44;16.88;;;3.90;;
60312;SDS011;46158;52.850;6.970;2023-09-30T12:24:13;15.38;;;4.32;;
60312;SDS011;46158;52.850;6.970;2023-09-30T12:26:44;15.57;;;4.05;;
60312;SDS011;46158;52.850;6.970;2023-09-30T12:29:16;14.30;;;3.95;;
60312;SDS011;46158;52.850;6.970;2023-09-30T12:31:45;14.45;;;4.20;;
60312;SDS011;46158;52.850;6.970;2023-09-30T12:34:12;13.35;;;3.90;;
60312;SDS011;46158;52.850;6.970;2023-09-30T12:36:42;13.75;;;3.75;;
60312;SDS011;46158;52.850;6.970;2023-09-30T12:39:11;15.63;;;3.97;;
60312;SDS011;46158;52.850;6.970;2023-09-30T12:41:40;12.30;;;3.75;;
60312;SDS011;46158;52.850;6.970;2023-09-30T12:44:08;12.80;;;3.65;;
60312;SDS011;46158;52.850;6.970;2023-09-30T12:46:35;12.48;;;3.42;;
60312;SDS011;46158;52.850;6.970;2023-09-30T12:49:08;13.30;;;3.78;;
60312;SDS011;46158;52.850;6.970;2023-09-30T12:51:35;13.95;;;3.67;;
60312;SDS011;46158;52.850;6.970;2023-09-30T12:54:01;11.05;;;3.42;;
60312;SDS011;46158;52.850;6.970;2023-09-30T12:56:28;13.30;;;3.30;;
60312;SDS011;46158;52.850;6.970;2023-09-30T12:58:57;13.65;;;3.75;;
60312;SDS011;46158;52.850;6.970;2023-09-30T13:01:23;15.05;;;3.70;;
60312;SDS011;46158;52.850;6.970;2023-09-30T13:03:49;15.13;;;3.85;;
60312;SDS011;46158;52.850;6.970;2023-09-30T13:06:15;10.80;;;3.25;;
60312;SDS011;46158;52.850;6.970;2023-09-30T13:08:42;12.63;;;3.60;;
60312;SDS011;46158;52.850;6.970;2023-09-30T13:11:08;11.80;;;3.40;;
60312;SDS011;46158;52.850;6.970;2023-09-30T13:13:34;10.30;;;3.15;;
60312;SDS011;46158;52.850;6.970;2023-09-30T13:16:00;11.93;;;3.40;;
60312;SDS011;46158;52.850;6.970;2023-09-30T13:18:27;10.13;;;3.15;;
60312;SDS011;46158;52.850;6.970;2023-09-30T13:20:53;11.00;;;3.30;;
60312;SDS011;46158;52.850;6.970;2023-09-30T13:23:19;12.07;;;3.22;;
60312;SDS011;46158;52.850;6.970;2023-09-30T13:25:44;11.25;;;3.22;;
60312;SDS011;46158;52.850;6.970;2023-09-30T13:28:10;13.23;;;3.55;;
60312;SDS011;46158;52.850;6.970;2023-09-30T13:30:37;12.82;;;3.28;;
60312;SDS011;46158;52.850;6.970;2023-09-30T13:33:03;11.93;;;3.30;;
60312;SDS011;46158;52.850;6.970;2023-09-30T13:35:29;10.57;;;3.28;;
60312;SDS011;46158;52.850;6.970;2023-09-30T13:37:54;11.57;;;3.50;;
60312;SDS011;46158;52.850;6.970;2023-09-30T13:40:20;11.48;;;3.08;;
60312;SDS011;46158;52.850;6.970;2023-09-30T13:42:45;10.23;;;3.20;;
60312;SDS011;46158;52.850;6.970;2023-09-30T13:45:11;9.32;;;2.88;;
60312;SDS011;46158;52.850;6.970;2023-09-30T13:47:37;11.63;;;3.10;;
60312;SDS011;46158;52.850;6.970;2023-09-30T13:50:03;8.68;;;2.88;;
60312;SDS011;46158;52.850;6.970;2023-09-30T13:52:31;10.80;;;3.20;;
60312;SDS011;46158;52.850;6.970;2023-09-30T13:54:58;8.27;;;2.88;;
60312;SDS011;46158;52.850;6.970;2023-09-30T13:57:24;10.65;;;3.00;;
60312;SDS011;46158;52.850;6.970;2023-09-30T13:59:49;8.18;;;2.90;;
60312;SDS011;46158;52.850;6.970;2023-09-30T14:02:15;11.70;;;3.05;;
60312;SDS011;46158;52.850;6.970;2023-09-30T14:04:41;13.20;;;3.13;;
60312;SDS011;46158;52.850;6.970;2023-09-30T14:07:07;10.75;;;2.95;;
60312;SDS011;46158;52.850;6.970;2023-09-30T14:09:33;9.32;;;2.95;;
60312;SDS011;46158;52.850;6.970;2023-09-30T14:11:59;13.55;;;3.30;;
60312;SDS011;46158;52.850;6.970;2023-09-30T14:14:25;9.50;;;2.92;;
60312;SDS011;46158;52.850;6.970;2023-09-30T14:16:51;10.65;;;3.15;;
60312;SDS011;46158;52.850;6.970;2023-09-30T14:19:17;10.13;;;3.03;;
60312;SDS011;46158;52.850;6.970;2023-09-30T14:21:43;8.90;;;2.80;;
60312;SDS011;46158;52.850;6.970;2023-09-30T14:24:09;12.82;;;3.03;;
60312;SDS011;46158;52.850;6.970;2023-09-30T14:26:36;14.32;;;3.15;;
60312;SDS011;46158;52.850;6.970;2023-09-30T14:29:01;11.07;;;2.80;;
60312;SDS011;46158;52.850;6.970;2023-09-30T14:31:27;12.02;;;2.90;;
60312;SDS011;46158;52.850;6.970;2023-09-30T14:33:53;11.75;;;2.83;;
60312;SDS011;46158;52.850;6.970;2023-09-30T14:36:19;10.68;;;2.80;;
60312;SDS011;46158;52.850;6.970;2023-09-30T14:38:45;10.23;;;2.83;;
60312;SDS011;46158;52.850;6.970;2023-09-30T14:41:11;10.43;;;2.92;;
60312;SDS011;46158;52.850;6.970;2023-09-30T14:43:40;8.07;;;2.60;;
60312;SDS011;46158;52.850;6.970;2023-09-30T14:46:05;6.53;;;2.40;;
60312;SDS011;46158;52.850;6.970;2023-09-30T14:48:33;12.32;;;3.03;;
60312;SDS011;46158;52.850;6.970;2023-09-30T14:51:00;8.68;;;2.75;;
60312;SDS011;46158;52.850;6.970;2023-09-30T14:53:27;9.52;;;2.67;;
60312;SDS011;46158;52.850;6.970;2023-09-30T14:55:53;8.80;;;2.53;;
60312;SDS011;46158;52.850;6.970;2023-09-30T14:58:19;9.35;;;2.70;;
60312;SDS011;46158;52.850;6.970;2023-09-30T15:00:44;11.45;;;2.95;;
60312;SDS011;46158;52.850;6.970;2023-09-30T15:03:10;9.55;;;2.70;;
60312;SDS011;46158;52.850;6.970;2023-09-30T15:05:36;10.02;;;3.05;;
60312;SDS011;46158;52.850;6.970;2023-09-30T15:08:01;10.43;;;2.70;;
60312;SDS011;46158;52.850;6.970;2023-09-30T15:10:28;10.02;;;2.97;;
60312;SDS011;46158;52.850;6.970;2023-09-30T15:12:54;9.73;;;2.67;;